Weather


ICAO METAR
KAAF KAAF 180853Z AUTO 04009KT 10SM CLR 14/10 A3015 RMK AO2 SLP208 T01390100 55006
KABY KABY 180853Z AUTO 05007KT 10SM CLR 09/06 A3024 RMK AO2 SLP240 T00940061 58004
KAIK KAIK 180915Z AUTO 00000KT 10SM CLR 06/03 A3033 RMK AO2
KAMG KAMG 180853Z AUTO VRB04KT 10SM CLR 12/06 A3022 RMK AO2 SLP230 T01220061 55003
KAYS KAYS 180915Z AUTO 04007KT 10SM CLR 12/07 A3020 RMK AO2 T01200065
KAZE KAZE 180915Z AUTO 06004KT 10SM CLR 11/04 A3023 RMK AO2 T01130036
KBBP KBBP 180915Z AUTO 00000KT 10SM CLR 05/05 A3032 RMK AO2
KBGE KBGE 180915Z AUTO 05006KT 10SM CLR 11/08 A3020 RMK AO2
KBIJ KBIJ 180915Z AUTO 00000KT 10SM CLR 09/07 A3023 RMK AO2
KBNL KBNL 180915Z AUTO 00000KT 10SM 06/05 A3029 RMK AO2
KBOW KBOW 180915Z AUTO 04007KT 10SM BKN015 22/22 A3004 RMK AO2
KBQK KBQK 180915Z AUTO 01007KT 10SM SCT033 BKN040 14/10 A3020 RMK AO2
KCAE KCAE 180856Z 00000KT 10SM CLR 05/04 A3030 RMK AO2 SLP259 T00500044 53001
KCDN KCDN 180915Z AUTO 00000KT 10SM CLR 06/03 A3032 RMK AO2
KCEW KCEW 180853Z AUTO 00000KT 10SM CLR 07/06 A3020 RMK AO2 SLP227 T00720061 55002
KCHS KCHS 180856Z 03010KT 10SM CLR 11/07 A3025 RMK AO2 SLP243 T01110072 55000
KCKF KCKF 180915Z AUTO 08004KT 10SM CLR 10/07 A3026 RMK AO2 T01010067
KCOF KCOF 180908Z AUTO 03012KT 10SM -RA FEW008 22/21 A3002 RMK AO2 SLP170
KCPC KCPC 180905Z AUTO 00000KT 10SM CLR 08/06 A3029 RMK AO2 T00780060
KCRE KCRE 180853Z AUTO 02006KT 10SM CLR 09/07 A3026 RMK AO1 SLP249 T00940072 55006
KCRG KCRG 180853Z AUTO 35007KT 10SM BKN026 OVC034 19/16 A3012 RMK AO2 SLP200 T01890156 58004
KCTY KCTY 180915Z AUTO 03008KT 10SM CLR 14/11 A3017 RMK AO2 T01440109
KCUB KCUB 180853Z AUTO 00000KT 10SM CLR 09/05 A3031 RMK AO2 SLP262 T00890050 55000
KCWV KCWV 180915Z AUTO 00000KT 10SM CLR 08/07 A3025 RMK AO2 T00750070
KCXU KCXU 180915Z AUTO 00000KT 10SM CLR 09/08 A3022 RMK AO1 T00890075
KDAB KDAB 180853Z COR 00000KT 10SM FEW017 SCT046 BKN070 22/22 A3006 RMK AO2 RAB15E26 SLP179 P0000 60002 T02220222 56010 $
KDED KDED 180915Z AUTO 01004KT 10SM SCT020 SCT029 BKN048 21/21 A3007 RMK AO2
KDHN KDHN 180853Z AUTO 06004KT 10SM CLR 10/07 A3024 RMK AO2 SLP236 T01000067 58004
KDQH KDQH 180915Z AUTO 05009KT 10SM CLR 11/06 A3023 RMK AO2
KDTS KDTS 180853Z AUTO 09007KT 10SM CLR 17/08 A3018 RMK AO2 SLP218 T01720083 55001
KDYB KDYB 180915Z AUTO 00000KT 10SM CLR 07/07 A3028 RMK AO1
KECP KECP 180853Z AUTO 01004KT 10SM CLR 12/07 A3016 RMK AO2 SLP226 T01170072 56006
KEDN KEDN 180915Z AUTO 05003KT 10SM CLR 10/07 A3021 RMK AO2 T01030066
KEGI KEGI 180856Z AUTO 00000KT 10SM CLR 08/06 M RMK AO2 SLPNO T00820057 FZRANO $
KEVB KEVB 180150Z 02017G22KT 1SM RA BKN019 24/20 A3010 RMK LAST
KEZM KEZM 180855Z AUTO 06004KT 10SM CLR 10/02 A3028 RMK AO2 T01010017
KFDW KFDW 180915Z AUTO 03005KT 10SM CLR 07/04 A3031 RMK AO1
KFIN KFIN 180915Z AUTO 05006KT 10SM SCT020 BKN028 OVC120 22/21 A3007 RMK AO2 T02200212
KFLO KFLO 180853Z AUTO 01006KT 10SM CLR 07/06 A3030 RMK AO2 SLP259 T00670056 55002
KGGE KGGE 180915Z AUTO 36004KT 10SM CLR 09/07 A3028 RMK AO2
KGIF KGIF 180853Z AUTO 03006KT SCT009 22/21 A3005 RMK AO2 SLP172 T02220206 58008 $
KGNV KGNV 180853Z AUTO 35008KT 10SM CLR 14/12 A3014 RMK AO2 SLP206 T01390122 56007
KHOE KHOE 180915Z AUTO 04004KT 10SM CLR 11/07 A3020 RMK AO2
KHRT KHRT 180856Z 07006KT 10SM CLR 15/08 A3016 RMK AO2A SLP215 T01450084 55001 $
KHVS KHVS 180915Z AUTO 03005KT 10SM CLR 07/04 A3031 RMK AO2
KHXD KHXD 180915Z AUTO 03012G18KT 10SM CLR 15/09 A3024 RMK AO2
KHYW KHYW 180855Z AUTO 00000KT A3029 RMK AO2 PWINO
KISM KISM 180856Z AUTO 05005KT 10SM SCT013 BKN036 BKN095 22/21 A3005 RMK AO2 SLP177 T02220206 57009
KJAX KJAX 180856Z 36009KT 10SM SCT029 BKN037 BKN045 16/12 A3014 RMK AO2 SLP206 T01610122 58004
KJES KJES 180901Z AUTO 00000KT 10SM CLR 13/07 A3022 RMK AO2
KJKA KJKA 180915Z AUTO 04006KT 10SM CLR 13/09 A3015 RMK AO2 T01340090
KJYL KJYL 180915Z AUTO 07006KT 10SM CLR 09/07 A3028 RMK AO2 T00940073
KJZI KJZI 180915Z AUTO 36007KT 10SM CLR 13/08 A3025 RMK AO2
KLCQ KLCQ 180915Z AUTO 03007KT 10SM CLR 13/11 A3015 RMK AO2
KLEE KLEE 180909Z AUTO 01005KT 10SM FEW006 SCT012 OVC022 21/20 A3008 RMK AO2 T02060200
KLHW KLHW 180856Z AUTO 02006KT 10SM CLR 12/07 A3021 RMK AO2 SLP233 T01180065 53000 $
KLRO KLRO 180855Z AUTO 36005KT 10SM CLR 11/08 A3025 RMK AO2
KMAI KMAI 180853Z AUTO 06005KT 10SM CLR 09/06 A3018 RMK AO2 SLP220 T00940061 58007
KMCO KMCO 180853Z 02007KT 10SM FEW012 FEW025 SCT070 BKN250 22/22 A3005 RMK AO2 SLP173 60000 T02170217 58008 $
KMLB KMLB 180853Z AUTO 03013KT 10SM FEW014 23/21 A3002 RMK AO2 SLP165 60002 T02330211 55006
KMMT KMMT 180858Z AUTO 03005KT 10SM CLR 08/04 A3030 RMK AO2 SLP263 T00810042 55000 $
KMNI KMNI 180915Z M1/4SM FG VV000 06/06 A3029 RMK AO2
KMYR KMYR 180856Z AUTO 02009KT 10SM CLR 10/07 A3028 RMK AO2 SLP253 T01000072 55005
KNBC KNBC 180856Z AUTO 10SM CLR 12/08 A3025 RMK AO2 SLP245 T01220078 53001 $
KNDZ KNDZ 180856Z AUTO 06006KT 10SM CLR 13/06 A3018 RMK AO2 SLP207 T01280061 55000 $
KNIP KNIP 180853Z 35013KT 10SM SCT038 BKN250 18/15 A3013 RMK AO2 SLP198 T01830150 56005
KNPA KNPA 180856Z AUTO 06010KT CLR 17/09 A3015 RMK AO2 SLP212 T01720089 57002 $
KNRB KNRB 180852Z 03015G22KT 10SM SCT025 OVC039 23/19 A3011 RMK AO2 SLP196 T02330189 58003
KNSE KNSE 180856Z AUTO 06004KT 10SM CLR 11/07 A3018 RMK AO2 SLP208 T01110072 57000 $
KOCF KOCF 180907Z AUTO 01006KT 10SM FEW023 BKN031 OVC038 18/17 A3010 RMK AO2
KOGB KOGB 180853Z AUTO 05004KT 10SM CLR 08/05 A3029 RMK AO2 SLP257 T00830050 53000
KOMN KOMN 172250Z 02012G18KT 5SM RABR SCT022 BKN030 OVC040 23/20 A3007 RMK LAST
KORL KORL 180153Z 04012G21KT 10SM OVC019 24/21 A3008
KOZR KOZR 180856Z AUTO 04006KT 10SM CLR 09/06 A3020 RMK AO2 SLP228 T00880061 57005
KPAM KPAM 180856Z AUTO 06006KT 10SM CLR 13/08 A3017 RMK AO2 SLP220 T01340080 55005
KPNS KPNS 180853Z 05006KT 10SM CLR 16/07 A3017 RMK AO2 SLP218 T01610072 56002
KRBW KRBW 180915Z AUTO 36003KT 10SM CLR 07/06 A3028 RMK AO2
KSAV KSAV 180853Z AUTO 03010KT 10SM CLR 12/07 A3023 RMK AO2 SLP236 T01220067 55003
KSFB KSFB 180853Z AUTO 03004KT 10SM CLR 22/21 A3005 RMK AO2 SLP176 T02170206 58007
KSGJ KSGJ 180856Z AUTO 03016G24KT 10SM BKN021 OVC029 23/20 A3010 RMK AO2 SLP192 T02330200 56004
KSMS KSMS 180915Z AUTO 00000KT 10SM CLR 05/05 A3031 RMK AO2
KSSC KSSC 180858Z AUTO 03006KT 10SM CLR 07/04 A3028 RMK AO2 SLP255 T00680037 50000 $
KSSI KSSI 180853Z AUTO 01012KT 10SM FEW035 BKN044 17/12 A3017 RMK AO2 SLP218 T01670122 55001
KSVN KSVN 180856Z AUTO 02005KT 10SM CLR 13/08 A3020 RMK AO2 SLP230 T01270076 55001 $
KTBR KTBR 180855Z AUTO 02004KT 10SM CLR 09/05 A3026 RMK AO2 T00910054
KTIX KTIX 180047Z 01013KT 7SM BKN015 BKN030 25/24 A3006 RMK LAST
KTLH KTLH 180853Z AUTO 04008KT 10SM CLR 14/07 A3016 RMK AO2 SLP213 T01440072 56009
KTMA KTMA 180855Z AUTO 04004KT 10SM CLR 11/07 A3022 RMK AO2 T01050070
KTTS KTTS 180858Z AUTO 08005KT 10SM CLR 22/22 A3003 RMK AO2 RAB0758E02DZB20E23RAB23E36DZB36E51 SLP173 P0000 60003 T02210221 58007 VISNO RWY15 CHINO RWY15 $
KTVI KTVI 180915Z AUTO 03004KT 10SM CLR 11/07 A3021 RMK AO2
KUDG KUDG 180856Z AUTO 01004KT 10SM CLR 06/05 A3032 RMK AO2 SLP273 T00560050 53000
KVAD KVAD 180856Z AUTO 04008KT 10SM CLR 12/07 A3019 RMK AO2 SLP225 T01220067 56005 $
KVDI KVDI 180915Z AUTO 03005KT 10SM CLR 10/07 A3025 RMK AO2
KVLD KVLD 180853Z AUTO 04006KT 10SM CLR 12/07 A3019 RMK AO2 SLP229 T01220072 56005
KVPS KVPS 180855Z 05006KT 10SM CLR 15/07 A3018 RMK AO2A SLP226 T01470065 55001 $
KVQQ KVQQ 180915Z AUTO 35007KT 10SM FEW032 FEW038 FEW047 14/13 A3013 RMK AO2
KXMR KXMR 180858Z AUTO 06007KT 10SM FEW015 BKN120 23/21 A3002 RMK AO2 CIG 012 RWY31 SLP169 60000 T02290205 58006 $
KXNO KXNO 291158Z AUTO 00000KT 10SM FEW130 24/24 A2997 RMK AO2 SLP149 52009

Next Generation Radar

This is a composite plot of the radar summary, echo tops, storm movement, TVS and MESO signatures and watch boxes. The radar summary is color coded by precip type. Greens, yellows and reds are rain. Pinks are mixed precipitation (freezing rain, sleet). Blues are snow. NOTE: Radar data is susceptible to a phenomena called anomalous propagation. This generally happens at night and appears as a area of 20 dBZ echos (darkest green) which is centered around each radar site and expands with time. To try and reduce the problem, low echo values near the radar sites have been removed.


GOES 13 Visible Radar

This image is the equivalent of taking a black and white photo of the earth. The bright areas show where the sun is being reflected back into space as a result of clouds or snow cover. Clouds and snow show up white. The thicker the cloud, the brighter the color. Land surfaces show up as gray and ocean surfaces nearly black. The major limitation to visible imagery is that it is only valid during daylight.

GOES 13 Infrared 12 Hour Loop

This type of image shows heat based radiation from the infrared spectrum. In other words, the warmer the surface, the more infrared radiation it emits. For a satellite image, cooler surfaces are bright and warmer surfaces are dark. Since the atmosphere cools as you increase in altitude, clouds would show up as bright areas and land surfaces as dark areas. In addition, low clouds will be more gray and higher clouds will show up more white. Tall thunderstorm clouds will show up as bright white and fog will be hard to discern from land areas. A large advantage of IR is that you can view it 24 hours a day.


Surface Data

This is a composite map contain the following analyses: radar summary (color filled areas), surface data plot (composite station model), frontal locations (in various bold lines) and pressure contours (in thin blue lines).